Flight Track Log - Related Links

Times and Time Zones

All times are in EDT time to prevent confusion due to time zone crossing. See the LOF3378 flight status page for this flight to view local times or setup timezone preferences in your user account.

Time Position Orientation Groundspeed Altitude Reporting Facility
EDT Latitude Longitude Course Direction KTS MPH feet Rate Location/Type
Sun 11:59:43 AM 40.2411 -76.8783 318° Northwest 223 257 4,200  Level New York Center
Sun 12:00:41 PM 40.2806 -76.9581 303° West 238 274 7,100 2,269 Climbing New York Center
Sun 12:01:42 PM 40.3150 -77.0183 307° West 243 280 8,700 1,770 Climbing New York Center
Sun 12:02:43 PM 40.3608 -77.0961 308° West 238 274 10,700 1,563 Climbing New York Center
Sun 12:03:41 PM 40.4008 -77.1653 307° West 256 295 11,800 1,311 Climbing New York Center
Sun 12:04:00 PM 40.4785 -77.3403 303° West  Level FlightAware Approximate
Sun 12:04:42 PM 40.4581 -77.2633 308° West 297 342 13,300  Level New York Center
Sun 12:05:00 PM 40.5404 -77.4317 318° Northwest  Level FlightAware Approximate
Sun 12:05:42 PM 40.5036 -77.3439 307° West 308 354 14,700  Level New York Center
Sun 12:06:43 PM 40.5644 -77.4483 307° West 308 354 16,200 1,538 Climbing New York Center
Sun 12:08:22 PM 40.6394 -77.6169 300° West 323 372 18,800 1,547 Climbing Cleveland Center
Sun 12:09:22 PM 40.6506 -77.7286 278° West 309 356 20,300 1,550 Climbing Cleveland Center
Sun 12:10:22 PM 40.6617 -77.8431 277° West 309 356 21,900 1,550 Climbing Cleveland Center
Sun 12:11:22 PM 40.6769 -77.9519 281° West 314 361 23,400 1,500 Climbing Cleveland Center
Sun 12:12:22 PM 40.6919 -78.0664 280° West 314 361 24,900 1,500 Climbing Cleveland Center
Sun 12:13:22 PM 40.7089 -78.1781 281° West 314 361 26,400 1,450 Climbing Cleveland Center
Sun 12:14:22 PM 40.7217 -78.2844 279° West 314 361 27,800 1,200 Climbing Cleveland Center
Sun 12:15:22 PM 40.7364 -78.3964 280° West 314 361 28,800 1,050 Climbing Cleveland Center
Sun 12:16:22 PM 40.7531 -78.5108 281° West 314 361 29,900 600 Climbing Cleveland Center
Sun 12:17:22 PM 40.7697 -78.6311 280° West 314 361 30,000 350 Climbing Cleveland Center
Sun 12:18:22 PM 40.7842 -78.7431 280° West 329 379 30,600 900 Climbing Cleveland Center
Sun 12:19:22 PM 40.8006 -78.8717 280° West 351 404 31,800 1,250 Climbing Cleveland Center
Sun 12:20:22 PM 40.8214 -79.0136 281° West 362 417 33,100 1,200 Climbing Cleveland Center
Sun 12:21:22 PM 40.8378 -79.1369 280° West 357 411 34,200 1,150 Climbing Cleveland Center
Sun 12:22:22 PM 40.8539 -79.2600 280° West 351 404 35,400 900 Climbing Cleveland Center
Sun 12:23:22 PM 40.8697 -79.3806 280° West 351 404 36,000 300 Climbing Cleveland Center
Sun 12:24:22 PM 40.8856 -79.5092 279° West 351 404 36,000  Level Cleveland Center
Sun 12:25:22 PM 40.9014 -79.6436 279° West 363 418 36,000  Level Cleveland Center
Sun 12:26:22 PM 40.9169 -79.7808 279° West 374 430 36,000  Level Cleveland Center
Sun 12:27:22 PM 40.9344 -79.9069 280° West 381 438 36,000  Level Cleveland Center
Sun 12:28:22 PM 40.9728 -80.0386 291° West 381 438 36,000  Level Cleveland Center
Sun 12:29:22 PM 41.0669 -80.1258 325° Northwest 381 438 36,000  Level Cleveland Center
Sun 12:30:22 PM 41.1694 -80.2053 330° Northwest 401 461 36,000  Level Cleveland Center
Sun 12:31:22 PM 41.2633 -80.2931 325° Northwest 412 474 36,000  Level Cleveland Center
Sun 12:32:22 PM 41.3075 -80.4367 292° West 377 434 36,000  Level Cleveland Center
Sun 12:33:22 PM 41.2678 -80.5611 247° West 352 405 36,000  Level Cleveland Center
Sun 12:34:22 PM 41.2158 -80.6742 239° Southwest 359 413 36,000  Level Cleveland Center
Sun 12:35:22 PM 41.2133 -80.8094 269° West 359 413 36,000  Level Cleveland Center
Sun 12:36:22 PM 41.2153 -80.9475 271° West 367 422 36,000  Level Cleveland Center
Sun 12:37:22 PM 41.2189 -81.0856 272° West 367 422 36,000  Level Cleveland Center
Sun 12:38:22 PM 41.2222 -81.2236 272° West 367 422 36,000  Level Cleveland Center
Sun 12:39:22 PM 41.2236 -81.3589 271° West 372 428 36,000  Level Cleveland Center
Sun 12:40:22 PM 41.2289 -81.4803 273° West 372 428 36,000  Level Cleveland Center
Sun 12:41:22 PM 41.2319 -81.6183 272° West 372 428 36,000  Level Cleveland Center
Sun 12:42:22 PM 41.2325 -81.7594 270° West 372 428 36,000  Level Cleveland Center
Sun 12:43:22 PM 41.2333 -81.8972 271° West 372 428 36,000  Level Cleveland Center
Sun 12:44:22 PM 41.2503 -82.0303 280° West 372 428 36,000  Level Cleveland Center
Sun 12:45:22 PM 41.2986 -82.1722 294° West 373 429 36,000  Level Cleveland Center
Sun 12:46:22 PM 41.3447 -82.2981 296° West 381 438 36,000  Level Cleveland Center
Sun 12:47:22 PM 41.3906 -82.4264 295° West 381 438 36,000  Level Cleveland Center
Sun 12:48:22 PM 41.4364 -82.5553 295° West 381 438 36,000  Level Cleveland Center
Sun 12:49:22 PM 41.4425 -82.6744 274° West 373 429 36,000  Level Cleveland Center
Sun 12:50:22 PM 41.4275 -82.8125 262° West 367 422 36,000  Level Cleveland Center
Sun 12:51:22 PM 41.4144 -82.9506 263° West 373 429 36,000  Level Cleveland Center
Sun 12:52:22 PM 41.4011 -83.0856 263° West 373 429 36,000  Level Cleveland Center
Sun 12:53:22 PM 41.3850 -83.2344 262° West 373 429 36,000  Level Cleveland Center
Sun 12:54:22 PM 41.3714 -83.3722 263° West 373 429 36,000  Level Cleveland Center
Sun 12:55:22 PM 41.3681 -83.5106 268° West 373 429 36,000  Level Cleveland Center
Sun 12:56:22 PM 41.3644 -83.6486 268° West 373 429 36,000  Level Cleveland Center
Sun 12:57:22 PM 41.3606 -83.7897 268° West 373 429 36,000  Level Cleveland Center
Sun 12:58:59 PM 41.3519 -84.0086 267° West 382 440 36,000 -113 Level Chicago Center
Sun 01:00:02 PM 41.3472 -84.1497 267° West 382 440 35,700 -576 Descending Chicago Center
Sun 01:01:04 PM 41.3417 -84.2892 267° West 378 435 34,800 -829 Descending Chicago Center
Sun 01:02:05 PM 41.3358 -84.4250 267° West 369 425 34,000 -390 Descending Chicago Center
Sun 01:03:07 PM 41.3308 -84.5594 267° West 365 420 34,000  Level Chicago Center
Sun 01:04:09 PM 41.3242 -84.7175 267° West 357 411 34,000  Level Chicago Center
Sun 01:05:11 PM 41.3183 -84.8508 267° West 359 413 34,000  Level Chicago Center
Sun 01:06:13 PM 41.3119 -84.9867 266° West 366 421 34,000 -677 Level Chicago Center
Sun 01:07:15 PM 41.3053 -85.1236 266° West 369 425 32,600 -1,707 Descending Chicago Center
Sun 01:08:16 PM 41.2992 -85.2631 267° West 375 432 30,500 -2,000 Descending Chicago Center
Sun 01:09:18 PM 41.2919 -85.3978 266° West 368 423 28,500 -1,935 Descending Chicago Center
Sun 01:10:20 PM 41.2847 -85.5406 266° West 379 436 26,500 -1,452 Descending Chicago Center
Sun 01:11:22 PM 41.2781 -85.6839 267° West 385 443 25,500 -726 Descending Chicago Center
Sun 01:12:24 PM 41.2697 -85.8536 266° West 381 438 25,000 -242 Descending Chicago Center
Sun 01:13:26 PM 41.2794 -85.9944 275° West 381 438 25,000 -488 Level Chicago Center
Sun 01:14:27 PM 41.2942 -86.1319 278° West 377 434 24,000 -976 Descending Chicago Center
Sun 01:15:29 PM 41.3108 -86.2694 279° West 376 433 23,000 -1,065 Descending Chicago Center
Sun 01:16:31 PM 41.3256 -86.4031 278° West 367 422 21,800 -2,032 Descending Chicago Center
Sun 01:17:33 PM 41.3422 -86.5317 280° West 356 410 18,800 -2,758 Descending Chicago Center
Sun 01:18:35 PM 41.3836 -86.6425 296° West 334 384 16,100 -2,516 Descending Chicago Center
Sun 01:19:37 PM 41.4817 -86.7078 333° Northwest 328 377 13,600 -1,887 Descending Chicago Center
Sun 01:20:39 PM 41.5589 -86.7447 340° North 327 376 12,200 -774 Descending Chicago Center
Sun 01:21:41 PM 41.6422 -86.7867 339° North 324 373 12,000 -387 Descending Chicago Center
Sun 01:22:43 PM 41.7436 -86.8058 352° North 312 359 11,400 -488 Descending Chicago Center
Sun 01:23:44 PM 41.8297 -86.8222 352° North 315 362 11,000 -146 Descending Chicago Center
Sun 01:24:46 PM 41.9006 -86.8778 330° Northwest 312 359 11,100  Climbing Chicago Center
Sun 01:25:48 PM 41.9336 -86.9819 293° West 308 354 11,000 -48 Descending Chicago Center
Sun 01:26:50 PM 41.9661 -87.0883 292° West 312 359 11,000 -726 Level Chicago Center
Sun 01:27:52 PM 41.9878 -87.1975 285° West 263 303 9,500 -1,258 Descending Chicago Center
Sun 01:28:54 PM 41.9806 -87.2914 264° West 255 293 8,400 -1,016 Descending Chicago Center
Sun 01:29:56 PM 41.9844 -87.3825 273° West 248 285 7,400 -923 Descending Chicago Center
Sun 01:30:25 PM 41.9833 -87.4333 268° West 220 253 7,000 -505 Descending Chicago TRACON
Sun 01:31:31 PM 41.9833 -87.5167 270° West 211 243 6,600 -800 Descending Chicago TRACON
Sun 01:32:25 PM 41.9833 -87.5833 270° West 208 239 5,400 -1,263 Descending Chicago TRACON
Sun 01:33:25 PM 41.9833 -87.6667 270° West 205 236 4,200 -1,200 Descending Chicago TRACON
Sun 01:34:25 PM 41.9833 -87.7333 270° West 208 239 3,000 -1,100 Descending Chicago TRACON
Sun 01:35:25 PM 41.9833 -87.8000 270° West 165 190 2,000 -850 Descending Chicago TRACON
Sun 01:36:25 PM 41.9833 -87.8500 270° West 125 144 1,300 -700 Descending Chicago TRACON
Sun 01:39:00 PM 41.9667 -87.9000 270° West  Level FlightAware Approximate

Login

Don't have an account? Register now (free) for customized features, flight alerts, and more!